sensor_id;sensor_type;location;lat;lon;timestamp;pressure;altitude;pressure_sealevel;temperature;humidity
2397;BME280;1209;48.410;9.054;2024-03-02T00:01:47;95100.56;;;6.73;100.00
2397;BME280;1209;48.410;9.054;2024-03-02T00:04:12;95098.94;;;6.86;100.00
2397;BME280;1209;48.410;9.054;2024-03-02T00:06:38;95090.47;;;6.63;100.00
2397;BME280;1209;48.410;9.054;2024-03-02T00:09:03;95093.81;;;6.34;100.00
2397;BME280;1209;48.410;9.054;2024-03-02T00:11:28;95084.53;;;6.40;100.00
2397;BME280;1209;48.410;9.054;2024-03-02T00:13:54;95084.63;;;6.61;100.00
2397;BME280;1209;48.410;9.054;2024-03-02T00:16:19;95088.66;;;6.63;100.00
2397;BME280;1209;48.410;9.054;2024-03-02T00:18:45;95091.97;;;6.72;100.00
2397;BME280;1209;48.410;9.054;2024-03-02T00:21:10;95080.78;;;6.57;100.00
2397;BME280;1209;48.410;9.054;2024-03-02T00:23:36;95087.03;;;6.48;100.00
2397;BME280;1209;48.410;9.054;2024-03-02T00:26:02;95078.91;;;6.51;100.00
2397;BME280;1209;48.410;9.054;2024-03-02T00:28:30;95097.34;;;6.71;100.00
2397;BME280;1209;48.410;9.054;2024-03-02T00:31:04;95085.09;;;6.65;100.00
2397;BME280;1209;48.410;9.054;2024-03-02T00:33:32;95083.56;;;6.70;100.00
2397;BME280;1209;48.410;9.054;2024-03-02T00:35:58;95087.66;;;6.35;100.00
2397;BME280;1209;48.410;9.054;2024-03-02T00:38:25;95088.00;;;6.47;100.00
2397;BME280;1209;48.410;9.054;2024-03-02T00:40:51;95089.44;;;6.35;100.00
2397;BME280;1209;48.410;9.054;2024-03-02T00:46:00;95096.84;;;6.23;100.00
2397;BME280;1209;48.410;9.054;2024-03-02T00:48:25;95092.66;;;6.22;100.00
2397;BME280;1209;48.410;9.054;2024-03-02T00:50:52;95092.44;;;6.09;100.00
2397;BME280;1209;48.410;9.054;2024-03-02T00:53:22;95084.94;;;6.14;100.00
2397;BME280;1209;48.410;9.054;2024-03-02T00:55:48;95085.09;;;6.12;100.00
2397;BME280;1209;48.410;9.054;2024-03-02T00:58:14;95091.41;;;6.18;100.00
2397;BME280;1209;48.410;9.054;2024-03-02T01:00:39;95091.22;;;6.34;100.00
2397;BME280;1209;48.410;9.054;2024-03-02T01:03:04;95083.34;;;6.27;100.00
2397;BME280;1209;48.410;9.054;2024-03-02T01:05:30;95084.88;;;6.22;100.00
2397;BME280;1209;48.410;9.054;2024-03-02T01:07:55;95080.31;;;6.24;100.00
2397;BME280;1209;48.410;9.054;2024-03-02T01:10:20;95076.03;;;6.31;100.00
2397;BME280;1209;48.410;9.054;2024-03-02T01:12:45;95076.81;;;6.17;100.00
2397;BME280;1209;48.410;9.054;2024-03-02T01:15:11;95083.22;;;6.06;100.00
2397;BME280;1209;48.410;9.054;2024-03-02T01:17:36;95087.47;;;6.22;100.00
2397;BME280;1209;48.410;9.054;2024-03-02T01:20:01;95081.31;;;6.38;100.00
2397;BME280;1209;48.410;9.054;2024-03-02T01:22:27;95077.22;;;6.06;100.00
2397;BME280;1209;48.410;9.054;2024-03-02T01:24:52;95070.63;;;5.80;100.00
2397;BME280;1209;48.410;9.054;2024-03-02T01:27:17;95074.25;;;5.94;100.00
2397;BME280;1209;48.410;9.054;2024-03-02T01:29:43;95075.06;;;5.94;100.00
2397;BME280;1209;48.410;9.054;2024-03-02T01:32:09;95076.25;;;6.07;100.00
2397;BME280;1209;48.410;9.054;2024-03-02T01:34:34;95079.84;;;5.83;100.00
2397;BME280;1209;48.410;9.054;2024-03-02T01:36:59;95082.38;;;5.91;100.00
2397;BME280;1209;48.410;9.054;2024-03-02T01:39:24;95083.19;;;5.91;100.00
2397;BME280;1209;48.410;9.054;2024-03-02T01:41:50;95071.22;;;5.45;100.00
2397;BME280;1209;48.410;9.054;2024-03-02T01:44:15;95076.63;;;5.58;100.00
2397;BME280;1209;48.410;9.054;2024-03-02T01:46:40;95080.47;;;5.62;100.00
2397;BME280;1209;48.410;9.054;2024-03-02T01:49:06;95085.94;;;5.67;100.00
2397;BME280;1209;48.410;9.054;2024-03-02T01:51:31;95084.56;;;5.56;100.00
2397;BME280;1209;48.410;9.054;2024-03-02T01:53:57;95073.28;;;5.49;100.00
2397;BME280;1209;48.410;9.054;2024-03-02T01:56:22;95077.25;;;5.60;100.00
2397;BME280;1209;48.410;9.054;2024-03-02T01:58:48;95071.84;;;5.69;100.00
2397;BME280;1209;48.410;9.054;2024-03-02T02:01:13;95061.34;;;5.63;100.00
2397;BME280;1209;48.410;9.054;2024-03-02T02:03:39;95066.91;;;5.37;100.00
2397;BME280;1209;48.410;9.054;2024-03-02T02:06:05;95065.28;;;5.36;100.00
2397;BME280;1209;48.410;9.054;2024-03-02T02:08:32;95070.47;;;5.36;100.00
2397;BME280;1209;48.410;9.054;2024-03-02T02:10:57;95067.34;;;5.63;100.00
2397;BME280;1209;48.410;9.054;2024-03-02T02:13:22;95076.44;;;5.59;100.00
2397;BME280;1209;48.410;9.054;2024-03-02T02:15:48;95061.25;;;5.56;100.00
2397;BME280;1209;48.410;9.054;2024-03-02T02:18:13;95061.53;;;5.38;100.00
2397;BME280;1209;48.410;9.054;2024-03-02T02:20:38;95059.09;;;5.14;100.00
2397;BME280;1209;48.410;9.054;2024-03-02T02:23:04;95067.81;;;5.21;100.00
2397;BME280;1209;48.410;9.054;2024-03-02T02:25:31;95064.78;;;5.10;100.00
2397;BME280;1209;48.410;9.054;2024-03-02T02:27:57;95070.25;;;4.84;100.00
2397;BME280;1209;48.410;9.054;2024-03-02T02:30:32;95070.06;;;4.93;100.00
2397;BME280;1209;48.410;9.054;2024-03-02T02:32:58;95056.63;;;4.59;100.00
2397;BME280;1209;48.410;9.054;2024-03-02T02:35:24;95060.59;;;4.78;100.00
2397;BME280;1209;48.410;9.054;2024-03-02T02:37:49;95059.13;;;4.83;100.00
2397;BME280;1209;48.410;9.054;2024-03-02T02:40:16;95058.91;;;4.93;100.00
2397;BME280;1209;48.410;9.054;2024-03-02T02:42:41;95048.22;;;4.96;100.00
2397;BME280;1209;48.410;9.054;2024-03-02T02:45:06;95037.22;;;4.63;100.00
2397;BME280;1209;48.410;9.054;2024-03-02T02:47:32;95041.09;;;4.98;100.00
2397;BME280;1209;48.410;9.054;2024-03-02T02:50:01;95032.50;;;4.66;100.00
2397;BME280;1209;48.410;9.054;2024-03-02T02:52:33;95035.94;;;4.59;100.00
2397;BME280;1209;48.410;9.054;2024-03-02T02:55:01;95033.38;;;4.51;100.00
2397;BME280;1209;48.410;9.054;2024-03-02T02:57:28;95038.13;;;4.39;100.00
2397;BME280;1209;48.410;9.054;2024-03-02T02:59:55;95036.31;;;4.48;100.00
2397;BME280;1209;48.410;9.054;2024-03-02T03:02:20;95032.88;;;4.55;100.00
2397;BME280;1209;48.410;9.054;2024-03-02T03:04:45;95036.13;;;4.49;100.00
2397;BME280;1209;48.410;9.054;2024-03-02T03:07:11;95036.59;;;4.53;100.00
2397;BME280;1209;48.410;9.054;2024-03-02T03:09:37;95039.53;;;4.50;100.00
2397;BME280;1209;48.410;9.054;2024-03-02T03:12:04;95038.31;;;4.21;100.00
2397;BME280;1209;48.410;9.054;2024-03-02T03:14:29;95043.59;;;4.44;100.00
2397;BME280;1209;48.410;9.054;2024-03-02T03:16:54;95043.94;;;4.41;100.00
2397;BME280;1209;48.410;9.054;2024-03-02T03:19:19;95040.41;;;4.34;100.00
2397;BME280;1209;48.410;9.054;2024-03-02T03:21:45;95048.41;;;3.92;100.00
2397;BME280;1209;48.410;9.054;2024-03-02T03:24:10;95039.38;;;3.88;100.00
2397;BME280;1209;48.410;9.054;2024-03-02T03:26:36;95045.84;;;3.59;100.00
2397;BME280;1209;48.410;9.054;2024-03-02T03:29:01;95041.31;;;3.86;100.00
2397;BME280;1209;48.410;9.054;2024-03-02T03:31:28;95037.78;;;3.78;100.00
2397;BME280;1209;48.410;9.054;2024-03-02T03:33:53;95036.94;;;3.94;100.00
2397;BME280;1209;48.410;9.054;2024-03-02T03:36:18;95030.16;;;3.93;100.00
2397;BME280;1209;48.410;9.054;2024-03-02T03:38:43;95034.03;;;3.89;100.00
2397;BME280;1209;48.410;9.054;2024-03-02T03:41:09;95038.91;;;3.84;100.00
2397;BME280;1209;48.410;9.054;2024-03-02T03:43:35;95035.16;;;3.70;100.00
2397;BME280;1209;48.410;9.054;2024-03-02T03:46:00;95039.19;;;3.97;100.00
2397;BME280;1209;48.410;9.054;2024-03-02T03:48:27;95047.06;;;4.12;100.00
2397;BME280;1209;48.410;9.054;2024-03-02T03:50:55;95040.44;;;4.18;100.00
2397;BME280;1209;48.410;9.054;2024-03-02T03:53:21;95040.13;;;4.04;100.00
2397;BME280;1209;48.410;9.054;2024-03-02T03:55:47;95041.25;;;4.26;100.00
2397;BME280;1209;48.410;9.054;2024-03-02T03:58:14;95043.19;;;4.08;100.00
2397;BME280;1209;48.410;9.054;2024-03-02T04:00:41;95045.47;;;4.03;100.00
2397;BME280;1209;48.410;9.054;2024-03-02T04:03:07;95044.84;;;3.93;100.00
2397;BME280;1209;48.410;9.054;2024-03-02T04:05:32;95042.38;;;4.07;100.00
2397;BME280;1209;48.410;9.054;2024-03-02T04:07:57;95046.56;;;4.17;100.00
2397;BME280;1209;48.410;9.054;2024-03-02T04:10:22;95046.91;;;4.14;100.00
2397;BME280;1209;48.410;9.054;2024-03-02T04:12:49;95044.72;;;3.54;100.00
2397;BME280;1209;48.410;9.054;2024-03-02T04:15:15;95037.13;;;3.85;100.00
2397;BME280;1209;48.410;9.054;2024-03-02T04:17:41;95044.38;;;3.73;100.00
2397;BME280;1209;48.410;9.054;2024-03-02T04:20:06;95046.16;;;3.81;100.00
2397;BME280;1209;48.410;9.054;2024-03-02T04:22:34;95050.66;;;3.87;100.00
2397;BME280;1209;48.410;9.054;2024-03-02T04:25:01;95061.63;;;3.72;100.00
2397;BME280;1209;48.410;9.054;2024-03-02T04:27:26;95061.97;;;3.69;100.00
2397;BME280;1209;48.410;9.054;2024-03-02T04:29:52;95065.03;;;3.32;100.00
2397;BME280;1209;48.410;9.054;2024-03-02T04:32:17;95063.53;;;3.22;100.00
2397;BME280;1209;48.410;9.054;2024-03-02T04:34:42;95055.47;;;3.16;100.00
2397;BME280;1209;48.410;9.054;2024-03-02T04:37:08;95056.75;;;3.12;100.00
2397;BME280;1209;48.410;9.054;2024-03-02T04:39:35;95056.59;;;3.06;100.00
2397;BME280;1209;48.410;9.054;2024-03-02T04:42:00;95051.41;;;2.98;100.00
2397;BME280;1209;48.410;9.054;2024-03-02T04:44:25;95043.25;;;3.43;100.00
2397;BME280;1209;48.410;9.054;2024-03-02T04:46:51;95045.81;;;3.27;100.00
2397;BME280;1209;48.410;9.054;2024-03-02T04:49:16;95035.50;;;3.27;100.00
2397;BME280;1209;48.410;9.054;2024-03-02T04:51:41;95029.56;;;3.34;100.00
2397;BME280;1209;48.410;9.054;2024-03-02T04:54:06;95040.19;;;3.31;100.00
2397;BME280;1209;48.410;9.054;2024-03-02T04:56:32;95038.06;;;3.27;100.00
2397;BME280;1209;48.410;9.054;2024-03-02T04:58:57;95042.06;;;3.05;100.00
2397;BME280;1209;48.410;9.054;2024-03-02T05:01:22;95034.63;;;2.86;100.00
2397;BME280;1209;48.410;9.054;2024-03-02T05:03:48;95045.31;;;3.15;100.00
2397;BME280;1209;48.410;9.054;2024-03-02T05:06:13;95052.69;;;2.94;100.00
2397;BME280;1209;48.410;9.054;2024-03-02T05:08:38;95047.06;;;3.06;100.00
2397;BME280;1209;48.410;9.054;2024-03-02T05:11:04;95048.19;;;2.88;100.00
2397;BME280;1209;48.410;9.054;2024-03-02T05:13:47;95049.97;;;3.03;100.00
2397;BME280;1209;48.410;9.054;2024-03-02T05:16:13;95057.25;;;3.16;100.00
2397;BME280;1209;48.410;9.054;2024-03-02T05:18:38;95059.66;;;3.17;100.00
2397;BME280;1209;48.410;9.054;2024-03-02T05:21:04;95058.06;;;3.16;100.00
2397;BME280;1209;48.410;9.054;2024-03-02T05:23:29;95065.16;;;3.23;100.00
2397;BME280;1209;48.410;9.054;2024-03-02T05:25:54;95057.06;;;3.01;100.00
2397;BME280;1209;48.410;9.054;2024-03-02T05:28:19;95061.28;;;3.27;100.00
2397;BME280;1209;48.410;9.054;2024-03-02T05:30:45;95059.84;;;3.24;100.00
2397;BME280;1209;48.410;9.054;2024-03-02T05:33:11;95065.47;;;3.28;100.00
2397;BME280;1209;48.410;9.054;2024-03-02T05:35:36;95066.94;;;3.30;100.00
2397;BME280;1209;48.410;9.054;2024-03-02T05:38:02;95055.47;;;3.16;100.00
2397;BME280;1209;48.410;9.054;2024-03-02T05:40:27;95055.16;;;3.28;100.00
2397;BME280;1209;48.410;9.054;2024-03-02T05:42:52;95059.66;;;3.26;100.00
2397;BME280;1209;48.410;9.054;2024-03-02T05:45:17;95055.63;;;3.15;100.00
2397;BME280;1209;48.410;9.054;2024-03-02T05:47:43;95065.13;;;2.98;100.00
2397;BME280;1209;48.410;9.054;2024-03-02T05:50:08;95066.28;;;3.20;100.00
2397;BME280;1209;48.410;9.054;2024-03-02T05:52:34;95068.53;;;3.15;100.00
2397;BME280;1209;48.410;9.054;2024-03-02T05:54:59;95074.16;;;3.10;100.00
2397;BME280;1209;48.410;9.054;2024-03-02T05:57:24;95070.78;;;3.10;100.00
2397;BME280;1209;48.410;9.054;2024-03-02T06:00:09;95079.81;;;3.14;100.00
2397;BME280;1209;48.410;9.054;2024-03-02T06:02:34;95075.91;;;3.02;100.00
2397;BME280;1209;48.410;9.054;2024-03-02T06:05:00;95079.63;;;2.99;100.00
2397;BME280;1209;48.410;9.054;2024-03-02T06:07:25;95079.13;;;2.96;100.00
2397;BME280;1209;48.410;9.054;2024-03-02T06:09:51;95079.91;;;2.88;100.00
2397;BME280;1209;48.410;9.054;2024-03-02T06:12:17;95083.34;;;2.63;100.00
2397;BME280;1209;48.410;9.054;2024-03-02T06:14:43;95084.69;;;2.75;100.00
2397;BME280;1209;48.410;9.054;2024-03-02T06:17:08;95078.56;;;2.76;100.00
2397;BME280;1209;48.410;9.054;2024-03-02T06:19:33;95081.78;;;2.78;100.00
2397;BME280;1209;48.410;9.054;2024-03-02T06:21:59;95081.84;;;2.86;100.00
2397;BME280;1209;48.410;9.054;2024-03-02T06:24:24;95084.47;;;3.02;100.00
2397;BME280;1209;48.410;9.054;2024-03-02T06:26:51;95085.25;;;3.03;100.00
2397;BME280;1209;48.410;9.054;2024-03-02T06:29:17;95079.81;;;3.14;100.00
2397;BME280;1209;48.410;9.054;2024-03-02T06:31:42;95085.44;;;3.01;100.00
2397;BME280;1209;48.410;9.054;2024-03-02T06:34:07;95086.91;;;3.20;100.00
2397;BME280;1209;48.410;9.054;2024-03-02T06:36:33;95086.91;;;3.20;100.00
2397;BME280;1209;48.410;9.054;2024-03-02T06:38:59;95090.94;;;3.14;100.00
2397;BME280;1209;48.410;9.054;2024-03-02T06:41:25;95098.69;;;3.31;100.00
2397;BME280;1209;48.410;9.054;2024-03-02T06:43:51;95095.97;;;3.32;100.00
2397;BME280;1209;48.410;9.054;2024-03-02T06:46:24;95103.34;;;3.19;100.00
2397;BME280;1209;48.410;9.054;2024-03-02T06:48:49;95105.19;;;3.59;100.00
2397;BME280;1209;48.410;9.054;2024-03-02T06:51:15;95103.03;;;3.22;100.00
2397;BME280;1209;48.410;9.054;2024-03-02T06:53:40;95107.28;;;3.47;100.00
2397;BME280;1209;48.410;9.054;2024-03-02T06:56:07;95099.97;;;3.19;100.00
2397;BME280;1209;48.410;9.054;2024-03-02T06:58:32;95095.94;;;3.16;100.00
2397;BME280;1209;48.410;9.054;2024-03-02T07:00:58;95098.69;;;3.31;100.00
2397;BME280;1209;48.410;9.054;2024-03-02T07:03:23;95090.19;;;3.38;100.00
2397;BME280;1209;48.410;9.054;2024-03-02T07:05:48;95098.09;;;3.37;100.00
2397;BME280;1209;48.410;9.054;2024-03-02T07:08:13;95101.47;;;3.62;100.00
2397;BME280;1209;48.410;9.054;2024-03-02T07:10:39;95098.25;;;3.76;100.00
2397;BME280;1209;48.410;9.054;2024-03-02T07:13:04;95092.47;;;3.82;100.00
2397;BME280;1209;48.410;9.054;2024-03-02T07:15:29;95090.34;;;3.77;100.00
2397;BME280;1209;48.410;9.054;2024-03-02T07:18:13;95093.25;;;3.58;100.00
2397;BME280;1209;48.410;9.054;2024-03-02T07:20:38;95092.78;;;3.87;100.00
2397;BME280;1209;48.410;9.054;2024-03-02T07:23:04;95106.16;;;3.99;100.00
2397;BME280;1209;48.410;9.054;2024-03-02T07:25:30;95098.91;;;3.78;100.00
2397;BME280;1209;48.410;9.054;2024-03-02T07:27:56;95096.97;;;3.88;100.00
2397;BME280;1209;48.410;9.054;2024-03-02T07:30:21;95094.25;;;3.90;100.00
2397;BME280;1209;48.410;9.054;2024-03-02T07:32:46;95090.38;;;3.86;100.00
2397;BME280;1209;48.410;9.054;2024-03-02T07:35:15;95080.34;;;3.99;100.00
2397;BME280;1209;48.410;9.054;2024-03-02T07:37:43;95082.78;;;3.92;100.00
2397;BME280;1209;48.410;9.054;2024-03-02T07:40:09;95076.16;;;3.98;100.00
2397;BME280;1209;48.410;9.054;2024-03-02T07:42:37;95081.78;;;4.01;100.00
2397;BME280;1209;48.410;9.054;2024-03-02T07:45:04;95071.63;;;4.08;100.00
2397;BME280;1209;48.410;9.054;2024-03-02T07:47:30;95084.66;;;4.15;100.00
2397;BME280;1209;48.410;9.054;2024-03-02T07:49:55;95073.53;;;4.14;100.00
2397;BME280;1209;48.410;9.054;2024-03-02T07:52:20;95077.41;;;4.26;100.00
2397;BME280;1209;48.410;9.054;2024-03-02T07:54:45;95064.06;;;4.54;100.00
2397;BME280;1209;48.410;9.054;2024-03-02T07:57:11;95062.38;;;4.77;100.00
2397;BME280;1209;48.410;9.054;2024-03-02T07:59:36;95066.91;;;5.06;100.00
2397;BME280;1209;48.410;9.054;2024-03-02T08:02:02;95072.31;;;5.19;100.00
2397;BME280;1209;48.410;9.054;2024-03-02T08:04:28;95076.16;;;5.31;100.00
2397;BME280;1209;48.410;9.054;2024-03-02T08:06:53;95079.56;;;5.32;100.00
2397;BME280;1209;48.410;9.054;2024-03-02T08:09:19;95074.66;;;5.37;100.00
2397;BME280;1209;48.410;9.054;2024-03-02T08:11:45;95083.13;;;5.31;100.00
2397;BME280;1209;48.410;9.054;2024-03-02T08:14:10;95078.88;;;5.38;100.00
2397;BME280;1209;48.410;9.054;2024-03-02T08:16:36;95090.66;;;5.10;100.00
2397;BME280;1209;48.410;9.054;2024-03-02T08:19:01;95094.59;;;4.97;100.00
2397;BME280;1209;48.410;9.054;2024-03-02T08:21:26;95088.72;;;4.72;100.00
2397;BME280;1209;48.410;9.054;2024-03-02T08:23:56;95101.34;;;4.76;100.00
2397;BME280;1209;48.410;9.054;2024-03-02T08:26:21;95109.03;;;4.92;100.00
2397;BME280;1209;48.410;9.054;2024-03-02T08:28:47;95111.56;;;5.00;100.00
2397;BME280;1209;48.410;9.054;2024-03-02T08:31:12;95109.34;;;5.28;100.00
2397;BME280;1209;48.410;9.054;2024-03-02T08:33:37;95113.66;;;5.58;100.00
2397;BME280;1209;48.410;9.054;2024-03-02T08:36:03;95110.06;;;5.90;100.00
2397;BME280;1209;48.410;9.054;2024-03-02T08:38:28;95107.41;;;6.21;100.00
2397;BME280;1209;48.410;9.054;2024-03-02T08:40:54;95103.75;;;6.45;100.00
2397;BME280;1209;48.410;9.054;2024-03-02T08:43:20;95112.53;;;6.74;100.00
2397;BME280;1209;48.410;9.054;2024-03-02T08:45:45;95111.69;;;7.03;100.00
2397;BME280;1209;48.410;9.054;2024-03-02T08:48:12;95105.66;;;7.32;100.00
2397;BME280;1209;48.410;9.054;2024-03-02T08:50:37;95113.56;;;7.81;100.00
2397;BME280;1209;48.410;9.054;2024-03-02T08:53:06;95107.06;;;7.92;100.00
2397;BME280;1209;48.410;9.054;2024-03-02T08:55:31;95098.88;;;8.16;100.00
2397;BME280;1209;48.410;9.054;2024-03-02T08:57:56;95092.34;;;8.48;100.00
2397;BME280;1209;48.410;9.054;2024-03-02T09:00:22;95092.25;;;8.63;100.00
2397;BME280;1209;48.410;9.054;2024-03-02T09:02:48;95095.34;;;9.21;100.00
2397;BME280;1209;48.410;9.054;2024-03-02T09:05:13;95092.28;;;9.85;100.00
2397;BME280;1209;48.410;9.054;2024-03-02T09:07:39;95088.34;;;10.48;100.00
2397;BME280;1209;48.410;9.054;2024-03-02T09:10:08;95085.31;;;10.25;100.00
2397;BME280;1209;48.410;9.054;2024-03-02T09:12:33;95085.69;;;9.95;100.00
2397;BME280;1209;48.410;9.054;2024-03-02T09:15:02;95084.47;;;10.70;100.00
2397;BME280;1209;48.410;9.054;2024-03-02T09:17:28;95074.41;;;11.39;100.00
2397;BME280;1209;48.410;9.054;2024-03-02T09:19:54;95075.94;;;11.91;100.00
2397;BME280;1209;48.410;9.054;2024-03-02T09:22:19;95077.13;;;12.20;97.79
2397;BME280;1209;48.410;9.054;2024-03-02T09:24:45;95067.28;;;11.90;100.00
2397;BME280;1209;48.410;9.054;2024-03-02T09:27:10;95067.03;;;12.48;96.98
2397;BME280;1209;48.410;9.054;2024-03-02T09:29:36;95059.88;;;12.80;95.42
2397;BME280;1209;48.410;9.054;2024-03-02T09:32:01;95057.47;;;12.97;96.57
2397;BME280;1209;48.410;9.054;2024-03-02T09:34:27;95054.22;;;13.13;100.00
2397;BME280;1209;48.410;9.054;2024-03-02T09:36:52;95057.59;;;13.39;97.04
2397;BME280;1209;48.410;9.054;2024-03-02T09:39:17;95056.72;;;13.75;95.95
2397;BME280;1209;48.410;9.054;2024-03-02T09:41:43;95050.13;;;13.54;94.69
2397;BME280;1209;48.410;9.054;2024-03-02T09:44:10;95045.78;;;13.48;100.00
2397;BME280;1209;48.410;9.054;2024-03-02T09:46:35;95040.53;;;13.48;100.00
2397;BME280;1209;48.410;9.054;2024-03-02T09:49:02;95034.44;;;13.36;99.22
2397;BME280;1209;48.410;9.054;2024-03-02T09:51:27;95032.41;;;13.19;99.20
2397;BME280;1209;48.410;9.054;2024-03-02T09:53:54;95031.53;;;13.97;100.00
2397;BME280;1209;48.410;9.054;2024-03-02T09:56:21;95038.28;;;14.05;99.71
2397;BME280;1209;48.410;9.054;2024-03-02T09:58:47;95035.59;;;14.35;99.43
2397;BME280;1209;48.410;9.054;2024-03-02T10:01:12;95032.91;;;14.00;100.00
2397;BME280;1209;48.410;9.054;2024-03-02T10:03:38;95040.84;;;14.23;100.00
2397;BME280;1209;48.410;9.054;2024-03-02T10:06:24;95039.06;;;14.05;100.00
2397;BME280;1209;48.410;9.054;2024-03-02T10:08:50;95039.31;;;14.04;100.00
2397;BME280;1209;48.410;9.054;2024-03-02T10:11:32;95034.63;;;13.94;100.00
2397;BME280;1209;48.410;9.054;2024-03-02T10:14:11;95032.09;;;13.88;100.00
2397;BME280;1209;48.410;9.054;2024-03-02T10:16:38;95030.28;;;14.00;100.00
2397;BME280;1209;48.410;9.054;2024-03-02T10:19:20;95030.41;;;14.16;100.00
2397;BME280;1209;48.410;9.054;2024-03-02T10:21:47;95026.22;;;14.62;99.86
2397;BME280;1209;48.410;9.054;2024-03-02T10:24:14;95026.56;;;14.54;100.00
2397;BME280;1209;48.410;9.054;2024-03-02T10:26:39;95020.53;;;14.54;100.00
2397;BME280;1209;48.410;9.054;2024-03-02T10:29:07;95016.84;;;14.31;100.00
2397;BME280;1209;48.410;9.054;2024-03-02T10:31:33;95012.81;;;13.94;100.00
2397;BME280;1209;48.410;9.054;2024-03-02T10:33:59;95015.38;;;14.59;100.00
2397;BME280;1209;48.410;9.054;2024-03-02T10:36:25;95013.56;;;14.71;100.00
2397;BME280;1209;48.410;9.054;2024-03-02T10:38:51;95019.03;;;14.46;100.00
2397;BME280;1209;48.410;9.054;2024-03-02T10:41:23;95010.25;;;15.44;94.13
2397;BME280;1209;48.410;9.054;2024-03-02T10:43:51;95005.25;;;15.02;94.55
2397;BME280;1209;48.410;9.054;2024-03-02T10:46:19;95010.66;;;15.53;90.12
2397;BME280;1209;48.410;9.054;2024-03-02T10:48:45;94999.59;;;15.79;82.91
2397;BME280;1209;48.410;9.054;2024-03-02T10:51:11;95000.50;;;16.18;82.23
2397;BME280;1209;48.410;9.054;2024-03-02T10:53:37;95003.09;;;15.85;88.18
2397;BME280;1209;48.410;9.054;2024-03-02T10:56:05;94997.44;;;15.48;93.01
2397;BME280;1209;48.410;9.054;2024-03-02T10:58:33;94991.78;;;15.67;89.31
2397;BME280;1209;48.410;9.054;2024-03-02T11:01:03;94986.19;;;15.64;91.30
2397;BME280;1209;48.410;9.054;2024-03-02T11:03:35;94984.75;;;15.90;86.90
2397;BME280;1209;48.410;9.054;2024-03-02T11:06:03;94986.44;;;16.13;84.09
2397;BME280;1209;48.410;9.054;2024-03-02T11:08:33;94981.31;;;15.89;83.43
2397;BME280;1209;48.410;9.054;2024-03-02T11:11:06;94981.84;;;16.42;81.78
2397;BME280;1209;48.410;9.054;2024-03-02T11:13:33;94974.13;;;16.35;74.93
2397;BME280;1209;48.410;9.054;2024-03-02T11:16:04;94978.34;;;16.36;70.57
2397;BME280;1209;48.410;9.054;2024-03-02T11:18:31;94965.13;;;16.53;69.91
2397;BME280;1209;48.410;9.054;2024-03-02T11:20:57;94963.22;;;16.48;69.52
2397;BME280;1209;48.410;9.054;2024-03-02T11:23:34;94968.06;;;16.34;68.08
2397;BME280;1209;48.410;9.054;2024-03-02T11:26:22;94962.28;;;16.37;66.96
2397;BME280;1209;48.410;9.054;2024-03-02T11:28:50;94963.75;;;16.28;67.61
2397;BME280;1209;48.410;9.054;2024-03-02T11:31:16;94960.16;;;16.34;66.23
2397;BME280;1209;48.410;9.054;2024-03-02T11:33:41;94957.94;;;16.65;65.69
2397;BME280;1209;48.410;9.054;2024-03-02T11:36:07;94954.59;;;16.53;65.06
2397;BME280;1209;48.410;9.054;2024-03-02T11:38:33;94948.91;;;16.61;64.41
2397;BME280;1209;48.410;9.054;2024-03-02T11:41:00;94950.50;;;16.62;65.12
2397;BME280;1209;48.410;9.054;2024-03-02T11:43:28;94940.94;;;16.56;63.87
2397;BME280;1209;48.410;9.054;2024-03-02T11:46:00;94935.88;;;16.71;64.18
2397;BME280;1209;48.410;9.054;2024-03-02T11:48:29;94924.81;;;16.96;63.24
2397;BME280;1209;48.410;9.054;2024-03-02T11:50:57;94925.09;;;16.34;62.52
2397;BME280;1209;48.410;9.054;2024-03-02T11:53:23;94916.44;;;16.77;64.42
2397;BME280;1209;48.410;9.054;2024-03-02T11:55:49;94928.59;;;16.78;63.85
2397;BME280;1209;48.410;9.054;2024-03-02T11:58:16;94926.88;;;16.67;63.21
2397;BME280;1209;48.410;9.054;2024-03-02T12:00:54;94916.34;;;16.67;61.76
2397;BME280;1209;48.410;9.054;2024-03-02T12:03:22;94917.25;;;16.78;64.20
2397;BME280;1209;48.410;9.054;2024-03-02T12:05:49;94908.03;;;16.80;63.06
2397;BME280;1209;48.410;9.054;2024-03-02T12:08:16;94909.63;;;17.03;62.53
2397;BME280;1209;48.410;9.054;2024-03-02T12:10:41;94895.53;;;16.71;62.76
2397;BME280;1209;48.410;9.054;2024-03-02T12:13:07;94891.38;;;16.75;61.94
2397;BME280;1209;48.410;9.054;2024-03-02T12:15:37;94894.47;;;16.93;61.91
2397;BME280;1209;48.410;9.054;2024-03-02T12:18:03;94883.41;;;16.96;61.60
2397;BME280;1209;48.410;9.054;2024-03-02T12:20:30;94894.38;;;16.83;61.81
2397;BME280;1209;48.410;9.054;2024-03-02T12:22:58;94895.16;;;17.06;62.42
2397;BME280;1209;48.410;9.054;2024-03-02T12:25:24;94888.78;;;16.80;60.45
2397;BME280;1209;48.410;9.054;2024-03-02T12:27:51;94895.56;;;16.97;60.73
2397;BME280;1209;48.410;9.054;2024-03-02T12:30:18;94890.53;;;16.69;61.24
2397;BME280;1209;48.410;9.054;2024-03-02T12:32:47;94885.31;;;17.01;63.07
2397;BME280;1209;48.410;9.054;2024-03-02T12:35:13;94883.13;;;16.93;61.30
2397;BME280;1209;48.410;9.054;2024-03-02T12:37:48;94873.38;;;16.93;61.68
2397;BME280;1209;48.410;9.054;2024-03-02T12:40:16;94878.88;;;17.14;62.44
2397;BME280;1209;48.410;9.054;2024-03-02T12:42:44;94868.91;;;16.50;61.99
2397;BME280;1209;48.410;9.054;2024-03-02T12:45:10;94869.13;;;16.92;62.00
2397;BME280;1209;48.410;9.054;2024-03-02T12:47:36;94860.41;;;17.14;60.18
2397;BME280;1209;48.410;9.054;2024-03-02T12:50:02;94862.28;;;16.91;59.89
2397;BME280;1209;48.410;9.054;2024-03-02T12:52:28;94850.88;;;16.86;61.07
2397;BME280;1209;48.410;9.054;2024-03-02T12:54:54;94857.59;;;16.98;62.97
2397;BME280;1209;48.410;9.054;2024-03-02T12:57:25;94854.31;;;17.13;62.18
2397;BME280;1209;48.410;9.054;2024-03-02T12:59:51;94854.22;;;16.76;60.27
2397;BME280;1209;48.410;9.054;2024-03-02T13:02:17;94851.31;;;16.78;62.47
2397;BME280;1209;48.410;9.054;2024-03-02T13:04:43;94845.75;;;17.01;62.42
2397;BME280;1209;48.410;9.054;2024-03-02T13:07:08;94844.44;;;17.30;62.17
2397;BME280;1209;48.410;9.054;2024-03-02T13:09:34;94849.00;;;17.08;61.37
2397;BME280;1209;48.410;9.054;2024-03-02T13:12:00;94855.16;;;16.92;62.41
2397;BME280;1209;48.410;9.054;2024-03-02T13:14:26;94847.91;;;17.04;59.60
2397;BME280;1209;48.410;9.054;2024-03-02T13:16:51;94851.03;;;16.74;60.07
2397;BME280;1209;48.410;9.054;2024-03-02T13:19:18;94855.63;;;16.62;62.11